createdAt,value
2019-05-12T00:00:24.592Z,0.00
2019-05-12T00:01:24.567Z,0.00
2019-05-12T00:02:24.560Z,0.00
2019-05-12T00:03:24.556Z,0.00
2019-05-12T00:04:24.542Z,0.00
2019-05-12T00:05:24.527Z,0.00
2019-05-12T00:06:24.518Z,0.00
2019-05-12T00:07:24.505Z,0.00
2019-05-12T00:08:24.501Z,0.00
2019-05-12T00:09:24.480Z,0.00
2019-05-12T00:10:24.461Z,0.00
2019-05-12T00:11:24.463Z,0.00
2019-05-12T00:12:24.458Z,0.00
2019-05-12T00:13:24.435Z,0.00
2019-05-12T00:14:24.436Z,0.00
2019-05-12T00:15:24.415Z,0.00
2019-05-12T00:16:24.399Z,0.00
2019-05-12T00:17:24.412Z,0.00
2019-05-12T00:18:24.397Z,0.00
2019-05-12T00:19:24.385Z,0.00
2019-05-12T00:20:24.369Z,0.00
2019-05-12T00:21:24.338Z,0.00
2019-05-12T00:22:24.335Z,0.00
2019-05-12T00:23:27.976Z,0.00
2019-05-12T00:24:25.330Z,0.00
2019-05-12T00:25:24.306Z,0.00
2019-05-12T00:26:24.296Z,0.00
2019-05-12T00:27:24.278Z,0.00
2019-05-12T00:28:24.266Z,0.00
2019-05-12T00:29:24.282Z,0.00
2019-05-12T00:30:24.253Z,0.00
2019-05-12T00:31:24.250Z,0.00
2019-05-12T00:32:24.236Z,0.00
2019-05-12T00:33:24.212Z,0.00
2019-05-12T00:34:24.223Z,0.00
2019-05-12T00:35:24.197Z,0.00
2019-05-12T00:36:24.184Z,0.00
2019-05-12T00:37:24.178Z,0.00
2019-05-12T00:38:24.173Z,0.00
2019-05-12T00:39:24.165Z,0.00
2019-05-12T00:40:24.147Z,0.00
2019-05-12T00:41:24.136Z,0.00
2019-05-12T00:42:24.124Z,0.00
2019-05-12T00:43:24.116Z,0.00
2019-05-12T00:44:24.123Z,0.00
2019-05-12T00:45:24.082Z,0.00
2019-05-12T00:46:24.075Z,0.00
2019-05-12T00:47:24.075Z,0.00
2019-05-12T00:48:24.056Z,0.00
2019-05-12T00:49:24.071Z,0.00
2019-05-12T00:50:24.047Z,0.00
2019-05-12T00:51:24.024Z,0.00
2019-05-12T00:52:24.018Z,0.00
2019-05-12T00:53:36.178Z,0.00
2019-05-12T00:54:25.007Z,0.00
2019-05-12T00:55:23.982Z,0.00
2019-05-12T00:56:23.970Z,0.00
2019-05-12T00:57:23.955Z,0.00
2019-05-12T00:58:23.951Z,0.00
2019-05-12T00:59:23.933Z,0.00
2019-05-12T01:00:23.938Z,0.00
2019-05-12T01:01:23.919Z,0.00
2019-05-12T01:02:23.916Z,0.00
2019-05-12T01:03:23.897Z,0.00
2019-05-12T01:04:23.894Z,0.00
2019-05-12T01:05:23.877Z,0.00
2019-05-12T01:06:23.851Z,0.00
2019-05-12T01:07:23.850Z,0.00
2019-05-12T01:08:23.845Z,0.00
2019-05-12T01:09:23.826Z,0.00
2019-05-12T01:10:23.820Z,0.00
2019-05-12T01:11:23.811Z,0.00
2019-05-12T01:12:23.800Z,0.00
2019-05-12T01:13:23.782Z,0.00
2019-05-12T01:14:23.785Z,0.00
2019-05-12T01:15:23.774Z,0.00
2019-05-12T01:16:23.750Z,0.00
2019-05-12T01:17:23.744Z,0.00
2019-05-12T01:18:23.727Z,0.00
2019-05-12T01:19:23.709Z,0.00
2019-05-12T01:20:23.721Z,0.00
2019-05-12T01:21:23.706Z,0.00
2019-05-12T01:22:23.689Z,0.00
2019-05-12T01:23:23.759Z,0.00
2019-05-12T01:24:23.661Z,0.00
2019-05-12T01:25:23.662Z,0.00
2019-05-12T01:26:23.664Z,0.00
2019-05-12T01:27:23.636Z,0.00
2019-05-12T01:28:23.620Z,0.00
2019-05-12T01:29:23.593Z,0.00
2019-05-12T01:30:23.599Z,0.00
2019-05-12T01:31:23.583Z,0.00
2019-05-12T01:32:23.576Z,0.00
2019-05-12T01:33:23.558Z,0.00
2019-05-12T01:34:23.543Z,0.00
2019-05-12T01:35:23.544Z,0.00
2019-05-12T01:36:23.522Z,0.00
2019-05-12T01:37:23.527Z,0.00
2019-05-12T01:38:23.514Z,0.00
2019-05-12T01:39:23.495Z,0.00
2019-05-12T01:40:23.496Z,0.00
2019-05-12T01:41:23.470Z,0.00
2019-05-12T01:42:23.483Z,0.00
2019-05-12T01:43:23.438Z,0.00
2019-05-12T01:44:23.436Z,0.00
2019-05-12T01:45:23.454Z,0.00
2019-05-12T01:46:23.426Z,0.00
2019-05-12T01:47:23.408Z,0.00
2019-05-12T01:48:23.394Z,0.00
2019-05-12T01:49:23.387Z,0.00
2019-05-12T01:50:23.392Z,0.00
2019-05-12T01:51:23.365Z,0.00
2019-05-12T01:52:23.356Z,0.00
2019-05-12T01:53:23.338Z,0.00
2019-05-12T01:54:23.326Z,0.00
2019-05-12T01:55:23.320Z,0.00
2019-05-12T01:56:23.304Z,0.00
2019-05-12T01:57:23.305Z,0.00
2019-05-12T01:58:23.292Z,0.00
2019-05-12T01:59:23.278Z,0.00
2019-05-12T02:00:23.286Z,0.00
2019-05-12T02:01:23.247Z,0.00
2019-05-12T02:02:23.235Z,0.00
2019-05-12T02:03:23.243Z,0.00
2019-05-12T02:04:23.223Z,0.00
2019-05-12T02:05:23.232Z,0.00
2019-05-12T02:06:23.198Z,0.00
2019-05-12T02:07:23.191Z,0.00
2019-05-12T02:08:23.176Z,0.00
2019-05-12T02:09:23.182Z,0.00
2019-05-12T02:10:23.174Z,0.00
2019-05-12T02:11:23.141Z,0.00
2019-05-12T02:12:23.144Z,0.00
2019-05-12T02:13:23.116Z,0.00
2019-05-12T02:14:23.116Z,0.00
2019-05-12T02:15:23.110Z,0.00
2019-05-12T02:16:23.093Z,0.00
2019-05-12T02:17:23.086Z,0.00
2019-05-12T02:18:23.074Z,0.00
2019-05-12T02:19:23.060Z,0.00
2019-05-12T02:20:23.043Z,0.00
2019-05-12T02:21:23.061Z,0.00
2019-05-12T02:22:23.026Z,0.00
2019-05-12T02:23:23.015Z,0.00
2019-05-12T02:24:27.129Z,0.00
2019-05-12T02:25:23.982Z,0.00
2019-05-12T02:26:22.989Z,0.00
2019-05-12T02:27:22.953Z,0.00
2019-05-12T02:28:22.951Z,0.00
2019-05-12T02:29:22.983Z,0.00
2019-05-12T02:30:22.949Z,0.00
2019-05-12T02:31:22.955Z,0.00
2019-05-12T02:32:25.299Z,0.00
2019-05-12T02:33:24.426Z,0.00
2019-05-12T02:34:25.429Z,0.00
2019-05-12T02:35:24.740Z,0.00
2019-05-12T02:36:25.750Z,0.00
2019-05-12T02:37:26.020Z,0.00
2019-05-12T02:38:25.150Z,0.00
2019-05-12T02:39:24.900Z,0.00
2019-05-12T02:40:25.155Z,0.00
2019-05-12T02:41:25.634Z,0.00
2019-05-12T02:42:24.395Z,4.00
2019-05-12T02:43:24.370Z,4.00
2019-05-12T02:44:24.821Z,4.00
2019-05-12T02:45:25.230Z,4.00
2019-05-12T02:46:25.564Z,4.00
2019-05-12T02:47:24.161Z,4.00
2019-05-12T02:48:24.566Z,4.00
2019-05-12T02:49:24.419Z,8.00
2019-05-12T02:50:24.765Z,4.00
2019-05-12T02:51:24.813Z,8.00
2019-05-12T02:52:24.906Z,8.00
2019-05-12T02:53:24.861Z,8.00
2019-05-12T02:54:26.980Z,8.00
2019-05-12T02:55:25.767Z,12.00
2019-05-12T02:56:25.724Z,16.00
2019-05-12T02:57:25.509Z,16.00
2019-05-12T02:58:25.398Z,16.00
2019-05-12T02:59:25.296Z,20.00
2019-05-12T03:00:24.199Z,24.00
2019-05-12T03:01:24.475Z,24.00
2019-05-12T03:02:24.420Z,24.00
2019-05-12T03:03:25.096Z,28.00
2019-05-12T03:04:24.766Z,32.00
2019-05-12T03:05:24.835Z,36.00
2019-05-12T03:06:25.186Z,40.00
2019-05-12T03:07:25.319Z,44.00
2019-05-12T03:08:25.354Z,52.00
2019-05-12T03:09:24.367Z,56.00
2019-05-12T03:10:25.298Z,60.00
2019-05-12T03:11:24.840Z,64.00
2019-05-12T03:12:25.470Z,72.00
2019-05-12T03:13:25.318Z,76.00
2019-05-12T03:14:25.209Z,84.00
2019-05-12T03:15:25.090Z,88.00
2019-05-12T03:16:25.425Z,96.00
2019-05-12T03:17:25.243Z,104.00
2019-05-12T03:18:25.222Z,112.00
2019-05-12T03:19:25.049Z,116.00
2019-05-12T03:20:24.166Z,124.00
2019-05-12T03:21:24.531Z,136.00
2019-05-12T03:22:25.279Z,140.00
2019-05-12T03:23:24.816Z,152.00
2019-05-12T03:24:25.013Z,160.00
2019-05-12T03:25:29.045Z,172.00
2019-05-12T03:26:24.615Z,180.00
2019-05-12T03:27:25.510Z,192.00
2019-05-12T03:28:25.470Z,204.00
2019-05-12T03:29:24.849Z,216.00
2019-05-12T03:30:28.414Z,232.00
2019-05-12T03:31:30.556Z,248.00
2019-05-12T03:32:27.774Z,260.00
2019-05-12T03:33:33.602Z,276.00
2019-05-12T03:34:28.747Z,292.00
2019-05-12T03:35:32.185Z,308.00
2019-05-12T03:36:31.954Z,324.00
2019-05-12T03:37:30.876Z,340.00
2019-05-12T03:38:24.857Z,360.00
2019-05-12T03:39:24.822Z,376.00
2019-05-12T03:40:24.948Z,400.00
2019-05-12T03:41:24.897Z,428.00
2019-05-12T03:42:25.091Z,452.00
2019-05-12T03:43:24.349Z,480.00
2019-05-12T03:44:25.007Z,512.00
2019-05-12T03:45:24.893Z,544.00
2019-05-12T03:46:24.827Z,576.00
2019-05-12T03:47:25.138Z,604.00
2019-05-12T03:48:25.081Z,636.00
2019-05-12T03:49:24.449Z,664.00
2019-05-12T03:50:24.376Z,696.00
2019-05-12T03:51:25.081Z,736.00
2019-05-12T03:52:24.336Z,768.00
2019-05-12T03:53:24.782Z,812.00
2019-05-12T03:54:24.403Z,848.00
2019-05-12T03:55:34.328Z,884.00
2019-05-12T03:56:26.009Z,928.00
2019-05-12T03:57:25.086Z,972.00
2019-05-12T03:58:25.323Z,1016.00
2019-05-12T03:59:21.959Z,1060.00
2019-05-12T04:00:24.729Z,1108.00
2019-05-12T04:01:25.183Z,1156.00
2019-05-12T04:02:24.917Z,1208.00
2019-05-12T04:03:24.737Z,1260.00
2019-05-12T04:04:24.420Z,1312.00
2019-05-12T04:05:24.364Z,1364.00
2019-05-12T04:06:24.487Z,1424.00
2019-05-12T04:07:24.375Z,1484.00
2019-05-12T04:08:24.641Z,1548.00
2019-05-12T04:09:24.381Z,1608.00
2019-05-12T04:10:24.511Z,1672.00
2019-05-12T04:11:24.719Z,1740.00
2019-05-12T04:12:25.168Z,1812.00
2019-05-12T04:13:21.850Z,1872.00
2019-05-12T04:14:24.843Z,1936.00
2019-05-12T04:15:21.781Z,1996.00
2019-05-12T04:16:24.685Z,2068.00
2019-05-12T04:17:24.366Z,2144.00
2019-05-12T04:18:24.550Z,2212.00
2019-05-12T04:19:24.714Z,2288.00
2019-05-12T04:20:21.734Z,2364.00
2019-05-12T04:21:24.264Z,2432.00
2019-05-12T04:22:24.738Z,2500.00
2019-05-12T04:23:24.549Z,2560.00
2019-05-12T04:24:24.756Z,2616.00
2019-05-12T04:25:24.775Z,2676.00
2019-05-12T04:26:25.066Z,2748.00
2019-05-12T04:27:24.855Z,2820.00
2019-05-12T04:28:24.347Z,2896.00
2019-05-12T04:29:24.844Z,2972.00
2019-05-12T04:30:24.765Z,3052.00
2019-05-12T04:31:24.470Z,3128.00
2019-05-12T04:32:24.662Z,3192.00
2019-05-12T04:33:21.582Z,3256.00
2019-05-12T04:34:24.870Z,3304.00
2019-05-12T04:35:24.863Z,3360.00
2019-05-12T04:36:24.585Z,3408.00
2019-05-12T04:37:24.779Z,3452.00
2019-05-12T04:38:24.679Z,3520.00
2019-05-12T04:39:21.521Z,3596.00
2019-05-12T04:40:24.618Z,3684.00
2019-05-12T04:41:21.488Z,3780.00
2019-05-12T04:42:24.853Z,3880.00
2019-05-12T04:43:25.050Z,3980.00
2019-05-12T04:44:24.873Z,4076.00
2019-05-12T04:45:21.439Z,4176.00
2019-05-12T04:46:21.433Z,4288.00
2019-05-12T04:47:21.437Z,4416.00
2019-05-12T04:48:21.697Z,4548.00
2019-05-12T04:49:24.707Z,4672.00
2019-05-12T04:50:24.272Z,4780.00
2019-05-12T04:51:21.389Z,4884.00
2019-05-12T04:52:24.637Z,5012.00
2019-05-12T04:53:24.875Z,5104.00
2019-05-12T04:54:24.360Z,5220.00
2019-05-12T04:55:21.336Z,5328.00
2019-05-12T04:56:24.739Z,5504.00
2019-05-12T04:57:21.569Z,5792.00
2019-05-12T04:58:21.322Z,6132.00
2019-05-12T04:59:21.295Z,6440.00
2019-05-12T05:00:21.282Z,6448.00
2019-05-12T05:01:21.286Z,7088.00
2019-05-12T05:02:24.573Z,7276.00
2019-05-12T05:03:21.260Z,6972.00
2019-05-12T05:04:24.102Z,7188.00
2019-05-12T05:05:21.222Z,7236.00
2019-05-12T05:06:21.209Z,6724.00
2019-05-12T05:07:24.183Z,6920.00
2019-05-12T05:08:24.114Z,6060.00
2019-05-12T05:09:24.386Z,5780.00
2019-05-12T05:10:21.177Z,5268.00
2019-05-12T05:11:21.169Z,5092.00
2019-05-12T05:12:23.744Z,5040.00
2019-05-12T05:13:21.133Z,5064.00
2019-05-12T05:14:21.126Z,5140.00
2019-05-12T05:15:21.119Z,5244.00
2019-05-12T05:16:21.112Z,5348.00
2019-05-12T05:17:24.185Z,5468.00
2019-05-12T05:18:21.076Z,5568.00
2019-05-12T05:19:21.064Z,5684.00
2019-05-12T05:20:21.060Z,5896.00
2019-05-12T05:21:21.059Z,6044.00
2019-05-12T05:22:21.036Z,6140.00
2019-05-12T05:23:21.042Z,6272.00
2019-05-12T05:24:23.417Z,6392.00
2019-05-12T05:25:21.007Z,6632.00
2019-05-12T05:26:27.350Z,6924.00
2019-05-12T05:27:21.976Z,7524.00
2019-05-12T05:28:20.980Z,7792.00
2019-05-12T05:29:20.970Z,8196.00
2019-05-12T05:30:20.953Z,9132.00
2019-05-12T05:31:20.943Z,10576.00
2019-05-12T05:32:23.173Z,11380.00
2019-05-12T05:33:20.938Z,9984.00
2019-05-12T05:34:20.910Z,9648.00
2019-05-12T05:35:20.892Z,8044.00
2019-05-12T05:36:20.883Z,7600.00
2019-05-12T05:37:20.863Z,7540.00
2019-05-12T05:38:21.014Z,7640.00
2019-05-12T05:39:20.842Z,7712.00
2019-05-12T05:40:28.461Z,7904.00
2019-05-12T05:41:23.930Z,8032.00
2019-05-12T05:42:22.044Z,7928.00
2019-05-12T05:43:24.049Z,8044.00
2019-05-12T05:44:20.806Z,7892.00
2019-05-12T05:45:24.183Z,7780.00
2019-05-12T05:46:23.939Z,7600.00
2019-05-12T05:47:25.662Z,7300.00
2019-05-12T05:48:24.012Z,7084.00
2019-05-12T05:49:20.738Z,7112.00
2019-05-12T05:50:24.810Z,7300.00
2019-05-12T05:51:23.735Z,7524.00
2019-05-12T05:52:24.608Z,7664.00
2019-05-12T05:53:21.708Z,7652.00
2019-05-12T05:54:24.736Z,7568.00
2019-05-12T05:55:23.334Z,7512.00
2019-05-12T05:56:20.673Z,7628.00
2019-05-12T05:57:25.696Z,7972.00
2019-05-12T05:58:21.684Z,8408.00
2019-05-12T05:59:21.899Z,8892.00
2019-05-12T06:00:26.029Z,9396.00
2019-05-12T06:01:20.614Z,9812.00
2019-05-12T06:02:25.504Z,10076.00
2019-05-12T06:03:27.205Z,10336.00
2019-05-12T06:04:23.666Z,10732.00
2019-05-12T06:05:26.319Z,11180.00
2019-05-12T06:06:23.666Z,11996.00
2019-05-12T06:07:23.941Z,12308.00
2019-05-12T06:08:23.696Z,12732.00
2019-05-12T06:09:20.518Z,13472.00
2019-05-12T06:10:20.500Z,14444.00
2019-05-12T06:11:26.513Z,15072.00
2019-05-12T06:12:23.546Z,15096.00
2019-05-12T06:13:21.234Z,15232.00
2019-05-12T06:14:23.572Z,15804.00
2019-05-12T06:15:20.458Z,16992.00
2019-05-12T06:16:22.829Z,19552.00
2019-05-12T06:17:20.429Z,20512.00
2019-05-12T06:18:20.429Z,22240.00
2019-05-12T06:19:23.481Z,26176.00
2019-05-12T06:20:23.683Z,24896.00
2019-05-12T06:21:20.378Z,24000.00
2019-05-12T06:22:20.369Z,23904.00
2019-05-12T06:23:20.371Z,23392.00
2019-05-12T06:24:20.370Z,23552.00
2019-05-12T06:25:20.361Z,22880.00
2019-05-12T06:26:20.948Z,24032.00
2019-05-12T06:27:21.345Z,26272.00
2019-05-12T06:28:20.310Z,29504.00
2019-05-12T06:29:21.999Z,41088.00
2019-05-12T06:30:20.279Z,51520.00
2019-05-12T06:31:25.234Z,40864.00
2019-05-12T06:32:21.251Z,48512.00
2019-05-12T06:33:22.820Z,50176.00
2019-05-12T06:34:21.263Z,45440.00
2019-05-12T06:35:20.222Z,49120.00
2019-05-12T06:36:22.160Z,49600.00
2019-05-12T06:37:20.218Z,51872.00
2019-05-12T06:38:20.224Z,45472.00
2019-05-12T06:39:20.857Z,39904.00
2019-05-12T06:40:20.186Z,41120.00
2019-05-12T06:41:21.326Z,41056.00
2019-05-12T06:42:20.142Z,40864.00
2019-05-12T06:43:20.169Z,46496.00
2019-05-12T06:44:20.145Z,49312.00
2019-05-12T06:45:20.125Z,33376.00
2019-05-12T06:46:22.991Z,25984.00
2019-05-12T06:47:21.104Z,25312.00
2019-05-12T06:48:25.672Z,26336.00
2019-05-12T06:49:21.077Z,22944.00
2019-05-12T06:50:20.057Z,25216.00
2019-05-12T06:51:23.680Z,27424.00
2019-05-12T06:52:21.040Z,21888.00
2019-05-12T06:53:24.958Z,30208.00
2019-05-12T06:54:21.019Z,26688.00
2019-05-12T06:55:19.997Z,45952.00
2019-05-12T06:56:20.075Z,49504.00
2019-05-12T06:57:25.192Z,59104.00
2019-05-12T06:58:26.786Z,40416.00
2019-05-12T06:59:23.590Z,52992.00
2019-05-12T07:00:22.260Z,56544.00
2019-05-12T07:01:20.937Z,58432.00
2019-05-12T07:02:19.927Z,58208.00
2019-05-12T07:03:28.420Z,59488.00
2019-05-12T07:04:23.409Z,62752.00
2019-05-12T07:05:19.899Z,64064.00
2019-05-12T07:06:20.093Z,63744.00
2019-05-12T07:07:19.896Z,62080.00
2019-05-12T07:08:26.302Z,62656.00
2019-05-12T07:09:25.135Z,63456.00
2019-05-12T07:10:36.743Z,65888.00
2019-05-12T07:11:20.859Z,66560.00
2019-05-12T07:12:24.947Z,65344.00
2019-05-12T07:13:24.627Z,61088.00
2019-05-12T07:14:23.164Z,61984.00
2019-05-12T07:15:22.853Z,59808.00
2019-05-12T07:16:23.785Z,63200.00
2019-05-12T07:17:20.767Z,54880.00
2019-05-12T07:18:24.371Z,53248.00
2019-05-12T07:19:22.627Z,63424.00
2019-05-12T07:20:19.741Z,63328.00
2019-05-12T07:21:23.639Z,64928.00
2019-05-12T07:22:23.401Z,55488.00
2019-05-12T07:23:25.991Z,50240.00
2019-05-12T07:24:20.710Z,59904.00
2019-05-12T07:25:24.539Z,59200.00
2019-05-12T07:26:20.665Z,70880.00
2019-05-12T07:27:32.237Z,74816.00
2019-05-12T07:28:20.640Z,76064.00
2019-05-12T07:29:19.654Z,78368.00
2019-05-12T07:30:19.646Z,79392.00
2019-05-12T07:31:19.629Z,75200.00
2019-05-12T07:32:21.782Z,77664.00
2019-05-12T07:33:19.618Z,74560.00
2019-05-12T07:34:19.614Z,71808.00
2019-05-12T07:35:19.585Z,74816.00
2019-05-12T07:36:19.557Z,75264.00
2019-05-12T07:37:19.554Z,63008.00
2019-05-12T07:38:21.559Z,71488.00
2019-05-12T07:39:19.538Z,68672.00
2019-05-12T07:40:25.652Z,70944.00
2019-05-12T07:41:20.510Z,76608.00
2019-05-12T07:42:22.683Z,38592.00
2019-05-12T07:43:20.868Z,72608.00
2019-05-12T07:44:22.191Z,74496.00
2019-05-12T07:45:22.389Z,71936.00
2019-05-12T07:46:19.451Z,30656.00
2019-05-12T07:47:24.631Z,14856.00
2019-05-12T07:48:20.424Z,77312.00
2019-05-12T07:49:22.016Z,79584.00
2019-05-12T07:50:24.270Z,81184.00
2019-05-12T07:51:20.406Z,77536.00
2019-05-12T07:52:19.400Z,74272.00
2019-05-12T07:53:19.388Z,75456.00
2019-05-12T07:54:19.384Z,78400.00
2019-05-12T07:55:19.387Z,82048.00
2019-05-12T07:56:24.359Z,83776.00
2019-05-12T07:57:20.332Z,81632.00
2019-05-12T07:58:19.670Z,81792.00
2019-05-12T07:59:19.316Z,85344.00
2019-05-12T08:00:25.174Z,84064.00
2019-05-12T08:01:20.304Z,84736.00
2019-05-12T08:02:23.178Z,86112.00
2019-05-12T08:03:21.426Z,89568.00
2019-05-12T08:04:19.278Z,88192.00
2019-05-12T08:05:21.241Z,87232.00
2019-05-12T08:06:19.243Z,85888.00
2019-05-12T08:07:19.766Z,85952.00
2019-05-12T08:08:20.243Z,85440.00
2019-05-12T08:09:24.108Z,85440.00
2019-05-12T08:10:20.389Z,86080.00
2019-05-12T08:11:19.194Z,89792.00
2019-05-12T08:12:20.946Z,78272.00
2019-05-12T08:13:19.186Z,72864.00
2019-05-12T08:14:25.887Z,81920.00
2019-05-12T08:15:20.204Z,77056.00
2019-05-12T08:16:19.530Z,80608.00
2019-05-12T08:17:20.134Z,90784.00
2019-05-12T08:18:19.122Z,85600.00
2019-05-12T08:19:23.913Z,90144.00
2019-05-12T08:20:20.114Z,84608.00
2019-05-12T08:21:19.105Z,86144.00
2019-05-12T08:22:24.324Z,88736.00
2019-05-12T08:23:20.076Z,98688.00
2019-05-12T08:24:19.075Z,84672.00
2019-05-12T08:25:27.098Z,95008.00
2019-05-12T08:26:20.038Z,89664.00
2019-05-12T08:27:19.039Z,83840.00
2019-05-12T08:28:24.421Z,101120.00
2019-05-12T08:29:21.443Z,96736.00
2019-05-12T08:30:19.022Z,83008.00
2019-05-12T08:31:23.547Z,89984.00
2019-05-12T08:32:20.414Z,98208.00
2019-05-12T08:33:18.979Z,102112.00
2019-05-12T08:34:18.984Z,102368.00
2019-05-12T08:35:25.559Z,103008.00
2019-05-12T08:36:23.443Z,100160.00
2019-05-12T08:37:18.932Z,97248.00
2019-05-12T08:38:18.923Z,86848.00
2019-05-12T08:39:22.856Z,80160.00
2019-05-12T08:40:19.909Z,83936.00
2019-05-12T08:41:18.941Z,76672.00
2019-05-12T08:42:18.918Z,72608.00
2019-05-12T08:43:18.878Z,78976.00
2019-05-12T08:44:24.596Z,70592.00
2019-05-12T08:45:25.737Z,60704.00
2019-05-12T08:46:19.870Z,77216.00
2019-05-12T08:47:18.847Z,69536.00
2019-05-12T08:48:21.638Z,79968.00
2019-05-12T08:49:19.818Z,79616.00
2019-05-12T08:50:25.591Z,67040.00
2019-05-12T08:51:20.222Z,77056.00
2019-05-12T08:52:18.786Z,79712.00
2019-05-12T08:53:20.884Z,77664.00
2019-05-12T08:54:18.780Z,82720.00
2019-05-12T08:55:25.163Z,82208.00
2019-05-12T08:56:22.958Z,82560.00
2019-05-12T08:57:19.734Z,85728.00
2019-05-12T08:58:30.106Z,92576.00
2019-05-12T08:59:24.908Z,87936.00
2019-05-12T09:00:19.710Z,104800.00
2019-05-12T09:01:20.269Z,101248.00
2019-05-12T09:02:19.696Z,101696.00
2019-05-12T09:03:20.322Z,102848.00
2019-05-12T09:04:19.669Z,91392.00
2019-05-12T09:05:18.666Z,102048.00
2019-05-12T09:06:19.803Z,106624.00
2019-05-12T09:07:18.690Z,106816.00
2019-05-12T09:08:18.633Z,101088.00
2019-05-12T09:09:18.620Z,99232.00
2019-05-12T09:10:18.601Z,98816.00
2019-05-12T09:11:18.618Z,79264.00
2019-05-12T09:12:18.592Z,68192.00
2019-05-12T09:13:18.585Z,76384.00
2019-05-12T09:14:18.587Z,66592.00
2019-05-12T09:15:18.559Z,64736.00
2019-05-12T09:16:18.567Z,78272.00
2019-05-12T09:17:18.553Z,80640.00
2019-05-12T09:18:19.073Z,88480.00
2019-05-12T09:19:23.867Z,86144.00
2019-05-12T09:20:19.540Z,98432.00
2019-05-12T09:21:23.740Z,99520.00
2019-05-12T09:22:20.902Z,107104.00
2019-05-12T09:23:18.492Z,89056.00
2019-05-12T09:24:21.754Z,78848.00
2019-05-12T09:25:19.467Z,87360.00
2019-05-12T09:26:23.680Z,87168.00
2019-05-12T09:27:19.453Z,93856.00
2019-05-12T09:28:18.450Z,100320.00
2019-05-12T09:29:18.420Z,97344.00
2019-05-12T09:30:18.408Z,100608.00
2019-05-12T09:31:19.462Z,101856.00
2019-05-12T09:32:19.422Z,104032.00
2019-05-12T09:33:21.275Z,105760.00
2019-05-12T09:34:19.376Z,101856.00
2019-05-12T09:35:18.365Z,86848.00
2019-05-12T09:36:21.472Z,84416.00
2019-05-12T09:37:18.367Z,97216.00
2019-05-12T09:38:23.124Z,98528.00
2019-05-12T09:39:19.331Z,99776.00
2019-05-12T09:40:20.633Z,100192.00
2019-05-12T09:41:18.317Z,94816.00
2019-05-12T09:42:19.210Z,97568.00
2019-05-12T09:43:19.281Z,99744.00
2019-05-12T09:44:20.288Z,103520.00
2019-05-12T09:45:19.290Z,95424.00
2019-05-12T09:46:18.270Z,98464.00
2019-05-12T09:47:23.002Z,99552.00
2019-05-12T09:48:19.238Z,100256.00
2019-05-12T09:49:24.874Z,101568.00
2019-05-12T09:50:20.445Z,97312.00
2019-05-12T09:51:18.216Z,104576.00
2019-05-12T09:52:22.083Z,108032.00
2019-05-12T09:53:19.186Z,108768.00
2019-05-12T09:54:18.173Z,109152.00
2019-05-12T09:55:18.170Z,111776.00
2019-05-12T09:56:18.165Z,96512.00
2019-05-12T09:57:18.170Z,96096.00
2019-05-12T09:58:23.251Z,98272.00
2019-05-12T09:59:22.990Z,103680.00
2019-05-12T10:00:19.125Z,110528.00
2019-05-12T10:01:18.112Z,111648.00
2019-05-12T10:02:20.704Z,112224.00
2019-05-12T10:03:18.096Z,112928.00
2019-05-12T10:04:19.742Z,107968.00
2019-05-12T10:05:18.071Z,108736.00
2019-05-12T10:06:21.255Z,108736.00
2019-05-12T10:07:18.066Z,107648.00
2019-05-12T10:08:18.050Z,111200.00
2019-05-12T10:09:19.838Z,113312.00
2019-05-12T10:10:18.032Z,111136.00
2019-05-12T10:11:20.773Z,110912.00
2019-05-12T10:12:18.036Z,105856.00
2019-05-12T10:13:20.264Z,107264.00
2019-05-12T10:14:18.996Z,109024.00
2019-05-12T10:15:26.713Z,102496.00
2019-05-12T10:16:18.962Z,102752.00
2019-05-12T10:17:20.425Z,102624.00
2019-05-12T10:18:18.958Z,102304.00
2019-05-12T10:19:17.939Z,105248.00
2019-05-12T10:20:17.936Z,108608.00
2019-05-12T10:21:17.932Z,106784.00
2019-05-12T10:22:17.934Z,109152.00
2019-05-12T10:23:20.477Z,110432.00
2019-05-12T10:24:17.920Z,113856.00
2019-05-12T10:25:17.877Z,111072.00
2019-05-12T10:26:17.902Z,109984.00
2019-05-12T10:27:21.005Z,110272.00
2019-05-12T10:28:18.855Z,97600.00
2019-05-12T10:29:20.589Z,105248.00
2019-05-12T10:30:17.913Z,104512.00
2019-05-12T10:31:18.839Z,103872.00
2019-05-12T10:32:17.848Z,99520.00
2019-05-12T10:33:17.845Z,101984.00
2019-05-12T10:34:17.807Z,102976.00
2019-05-12T10:35:24.034Z,105952.00
2019-05-12T10:36:18.787Z,109536.00
2019-05-12T10:37:19.272Z,110848.00
2019-05-12T10:38:18.774Z,110912.00
2019-05-12T10:39:17.768Z,111680.00
2019-05-12T10:40:17.764Z,110432.00
2019-05-12T10:41:17.755Z,111872.00
2019-05-12T10:42:17.742Z,112352.00
2019-05-12T10:43:17.745Z,110176.00
2019-05-12T10:44:17.733Z,111264.00
2019-05-12T10:45:20.514Z,107488.00
2019-05-12T10:46:18.532Z,112064.00
2019-05-12T10:47:18.690Z,104352.00
2019-05-12T10:48:17.683Z,101824.00
2019-05-12T10:49:17.671Z,101696.00
2019-05-12T10:50:17.666Z,100640.00
2019-05-12T10:51:17.648Z,106272.00
2019-05-12T10:52:17.638Z,107264.00
2019-05-12T10:53:17.936Z,109568.00
2019-05-12T10:54:17.631Z,106496.00
2019-05-12T10:55:17.623Z,106368.00
2019-05-12T10:56:17.608Z,99360.00
2019-05-12T10:57:17.595Z,97472.00
2019-05-12T10:58:17.594Z,100640.00
2019-05-12T10:59:30.305Z,101728.00
2019-05-12T11:00:24.745Z,101568.00
2019-05-12T11:01:18.562Z,104032.00
2019-05-12T11:02:20.314Z,102176.00
2019-05-12T11:03:18.563Z,99008.00
2019-05-12T11:04:25.043Z,102496.00
2019-05-12T11:05:21.567Z,104320.00
2019-05-12T11:06:18.503Z,101152.00
2019-05-12T11:07:17.504Z,100288.00
2019-05-12T11:08:17.505Z,103392.00
2019-05-12T11:09:21.376Z,103616.00
2019-05-12T11:10:20.008Z,106688.00
2019-05-12T11:11:17.464Z,106560.00
2019-05-12T11:12:19.206Z,99616.00
2019-05-12T11:13:18.466Z,94816.00
2019-05-12T11:14:20.211Z,92352.00
2019-05-12T11:15:18.442Z,98304.00
2019-05-12T11:16:22.917Z,95136.00
2019-05-12T11:17:18.408Z,97120.00
2019-05-12T11:18:20.558Z,81920.00
2019-05-12T11:19:18.382Z,84064.00
2019-05-12T11:20:17.374Z,83360.00
2019-05-12T11:21:17.377Z,95424.00
2019-05-12T11:22:17.367Z,98240.00
2019-05-12T11:23:17.374Z,105984.00
2019-05-12T11:24:17.342Z,97728.00
2019-05-12T11:25:17.336Z,80288.00
2019-05-12T11:26:17.332Z,90464.00
2019-05-12T11:27:17.339Z,102272.00
2019-05-12T11:28:17.417Z,104800.00
2019-05-12T11:29:17.296Z,106816.00
2019-05-12T11:30:17.288Z,109696.00
2019-05-12T11:31:17.263Z,105984.00
2019-05-12T11:32:17.775Z,102944.00
2019-05-12T11:33:17.296Z,104096.00
2019-05-12T11:34:17.255Z,103232.00
2019-05-12T11:35:17.249Z,105408.00
2019-05-12T11:36:17.244Z,106976.00
2019-05-12T11:37:17.224Z,104800.00
2019-05-12T11:38:17.233Z,105952.00
2019-05-12T11:39:17.216Z,101920.00
2019-05-12T11:40:17.219Z,102880.00
2019-05-12T11:41:20.268Z,101824.00
2019-05-12T11:42:17.181Z,103648.00
2019-05-12T11:43:17.164Z,103744.00
2019-05-12T11:44:17.177Z,104096.00
2019-05-12T11:45:17.160Z,101888.00
2019-05-12T11:46:17.146Z,102400.00
2019-05-12T11:47:24.369Z,103040.00
2019-05-12T11:48:18.128Z,105088.00
2019-05-12T11:49:21.770Z,105440.00
2019-05-12T11:50:18.096Z,104416.00
2019-05-12T11:51:20.885Z,104224.00
2019-05-12T11:52:19.393Z,103520.00
2019-05-12T11:53:17.085Z,106016.00
2019-05-12T11:54:17.094Z,105184.00
2019-05-12T11:55:21.274Z,105792.00
2019-05-12T11:56:18.047Z,103776.00
2019-05-12T11:57:20.023Z,104896.00
2019-05-12T11:58:18.033Z,104256.00
2019-05-12T11:59:17.036Z,103872.00
2019-05-12T12:00:17.019Z,103040.00
2019-05-12T12:01:16.989Z,103424.00
2019-05-12T12:02:20.153Z,101728.00
2019-05-12T12:03:18.472Z,101632.00
2019-05-12T12:04:16.991Z,101632.00
2019-05-12T12:05:16.979Z,100256.00
2019-05-12T12:06:16.961Z,102304.00
2019-05-12T12:07:16.957Z,95232.00
2019-05-12T12:08:16.946Z,98784.00